sensor_id;sensor_type;location;lat;lon;timestamp;P1;durP1;ratioP1;P2;durP2;ratioP2
44516;SDS011;30223;17.182;-96.766;2023-01-24T00:00:50;6.25;;;5.60;;
44516;SDS011;30223;17.182;-96.766;2023-01-24T00:03:18;6.90;;;4.35;;
44516;SDS011;30223;17.182;-96.766;2023-01-24T00:05:45;7.22;;;4.35;;
44516;SDS011;30223;17.182;-96.766;2023-01-24T00:08:14;5.30;;;3.90;;
44516;SDS011;30223;17.182;-96.766;2023-01-24T00:10:44;7.80;;;4.95;;
44516;SDS011;30223;17.182;-96.766;2023-01-24T00:13:11;6.05;;;4.72;;
44516;SDS011;30223;17.182;-96.766;2023-01-24T00:15:39;7.47;;;4.82;;
44516;SDS011;30223;17.182;-96.766;2023-01-24T00:18:06;6.20;;;4.68;;
44516;SDS011;30223;17.182;-96.766;2023-01-24T00:20:33;6.22;;;4.47;;
44516;SDS011;30223;17.182;-96.766;2023-01-24T00:23:00;9.70;;;4.88;;
44516;SDS011;30223;17.182;-96.766;2023-01-24T00:25:26;7.38;;;4.63;;
44516;SDS011;30223;17.182;-96.766;2023-01-24T00:27:53;8.55;;;4.43;;
44516;SDS011;30223;17.182;-96.766;2023-01-24T00:30:20;7.72;;;5.10;;
44516;SDS011;30223;17.182;-96.766;2023-01-24T00:32:46;6.20;;;5.35;;
44516;SDS011;30223;17.182;-96.766;2023-01-24T00:35:13;6.35;;;4.00;;
44516;SDS011;30223;17.182;-96.766;2023-01-24T00:37:40;4.13;;;3.65;;
44516;SDS011;30223;17.182;-96.766;2023-01-24T00:40:07;5.63;;;3.80;;
44516;SDS011;30223;17.182;-96.766;2023-01-24T00:42:34;6.97;;;4.63;;
44516;SDS011;30223;17.182;-96.766;2023-01-24T00:45:01;5.82;;;3.55;;
44516;SDS011;30223;17.182;-96.766;2023-01-24T00:47:28;6.03;;;3.63;;
44516;SDS011;30223;17.182;-96.766;2023-01-24T00:49:54;6.70;;;4.78;;
44516;SDS011;30223;17.182;-96.766;2023-01-24T00:52:21;5.22;;;3.83;;
44516;SDS011;30223;17.182;-96.766;2023-01-24T00:54:48;7.75;;;3.92;;
44516;SDS011;30223;17.182;-96.766;2023-01-24T00:57:14;6.50;;;4.03;;
44516;SDS011;30223;17.182;-96.766;2023-01-24T00:59:41;6.75;;;4.20;;
44516;SDS011;30223;17.182;-96.766;2023-01-24T01:02:07;6.63;;;5.28;;
44516;SDS011;30223;17.182;-96.766;2023-01-24T01:04:34;6.78;;;4.72;;
44516;SDS011;30223;17.182;-96.766;2023-01-24T01:07:01;7.00;;;4.18;;
44516;SDS011;30223;17.182;-96.766;2023-01-24T01:09:27;6.50;;;4.82;;
44516;SDS011;30223;17.182;-96.766;2023-01-24T01:11:54;5.35;;;4.10;;
44516;SDS011;30223;17.182;-96.766;2023-01-24T01:14:20;5.53;;;3.72;;
44516;SDS011;30223;17.182;-96.766;2023-01-24T01:16:47;6.20;;;4.00;;
44516;SDS011;30223;17.182;-96.766;2023-01-24T01:19:14;6.80;;;4.43;;
44516;SDS011;30223;17.182;-96.766;2023-01-24T01:21:40;7.03;;;4.20;;
44516;SDS011;30223;17.182;-96.766;2023-01-24T01:24:10;6.68;;;4.78;;
44516;SDS011;30223;17.182;-96.766;2023-01-24T01:26:36;8.32;;;4.05;;
44516;SDS011;30223;17.182;-96.766;2023-01-24T01:29:03;7.13;;;3.88;;
44516;SDS011;30223;17.182;-96.766;2023-01-24T01:31:30;10.68;;;4.40;;
44516;SDS011;30223;17.182;-96.766;2023-01-24T01:33:56;8.00;;;4.20;;
44516;SDS011;30223;17.182;-96.766;2023-01-24T01:36:23;6.35;;;3.45;;
44516;SDS011;30223;17.182;-96.766;2023-01-24T01:38:50;6.65;;;3.47;;
44516;SDS011;30223;17.182;-96.766;2023-01-24T01:41:16;10.50;;;4.10;;
44516;SDS011;30223;17.182;-96.766;2023-01-24T01:43:43;8.07;;;3.55;;
44516;SDS011;30223;17.182;-96.766;2023-01-24T01:46:28;9.80;;;4.15;;
44516;SDS011;30223;17.182;-96.766;2023-01-24T01:49:02;15.43;;;5.63;;
44516;SDS011;30223;17.182;-96.766;2023-01-24T01:51:35;7.57;;;4.75;;
44516;SDS011;30223;17.182;-96.766;2023-01-24T01:54:14;8.55;;;4.25;;
44516;SDS011;30223;17.182;-96.766;2023-01-24T01:56:48;11.20;;;4.47;;
44516;SDS011;30223;17.182;-96.766;2023-01-24T01:59:27;22.23;;;6.85;;
44516;SDS011;30223;17.182;-96.766;2023-01-24T02:01:59;13.25;;;5.65;;
44516;SDS011;30223;17.182;-96.766;2023-01-24T02:04:37;14.65;;;5.50;;
44516;SDS011;30223;17.182;-96.766;2023-01-24T02:09:46;11.48;;;5.00;;
44516;SDS011;30223;17.182;-96.766;2023-01-24T02:14:47;8.77;;;4.10;;
44516;SDS011;30223;17.182;-96.766;2023-01-24T02:17:39;15.60;;;4.63;;
44516;SDS011;30223;17.182;-96.766;2023-01-24T02:20:21;8.30;;;4.15;;
44516;SDS011;30223;17.182;-96.766;2023-01-24T02:28:07;9.90;;;4.07;;
44516;SDS011;30223;17.182;-96.766;2023-01-24T02:30:35;7.25;;;4.28;;
44516;SDS011;30223;17.182;-96.766;2023-01-24T02:33:10;8.32;;;4.20;;
44516;SDS011;30223;17.182;-96.766;2023-01-24T02:35:39;7.95;;;4.80;;
44516;SDS011;30223;17.182;-96.766;2023-01-24T02:38:07;8.85;;;4.97;;
44516;SDS011;30223;17.182;-96.766;2023-01-24T02:40:46;9.38;;;4.38;;
44516;SDS011;30223;17.182;-96.766;2023-01-24T02:43:17;6.20;;;4.55;;
44516;SDS011;30223;17.182;-96.766;2023-01-24T02:45:47;13.50;;;5.03;;
44516;SDS011;30223;17.182;-96.766;2023-01-24T02:48:14;7.75;;;4.07;;
44516;SDS011;30223;17.182;-96.766;2023-01-24T02:50:41;10.88;;;4.25;;
44516;SDS011;30223;17.182;-96.766;2023-01-24T02:53:26;8.68;;;5.25;;
44516;SDS011;30223;17.182;-96.766;2023-01-24T02:55:57;7.47;;;4.70;;
44516;SDS011;30223;17.182;-96.766;2023-01-24T02:58:46;9.45;;;4.45;;
44516;SDS011;30223;17.182;-96.766;2023-01-24T03:01:13;7.25;;;3.63;;
44516;SDS011;30223;17.182;-96.766;2023-01-24T03:03:41;5.80;;;4.00;;
44516;SDS011;30223;17.182;-96.766;2023-01-24T03:06:12;8.40;;;4.03;;
44516;SDS011;30223;17.182;-96.766;2023-01-24T03:08:40;11.15;;;5.35;;
44516;SDS011;30223;17.182;-96.766;2023-01-24T03:11:07;7.97;;;4.72;;
44516;SDS011;30223;17.182;-96.766;2023-01-24T03:13:34;9.90;;;4.32;;
44516;SDS011;30223;17.182;-96.766;2023-01-24T03:16:20;14.45;;;4.68;;
44516;SDS011;30223;17.182;-96.766;2023-01-24T03:19:05;6.60;;;4.03;;
44516;SDS011;30223;17.182;-96.766;2023-01-24T03:21:50;9.65;;;4.75;;
44516;SDS011;30223;17.182;-96.766;2023-01-24T03:24:35;6.32;;;4.05;;
44516;SDS011;30223;17.182;-96.766;2023-01-24T03:27:21;9.90;;;4.80;;
44516;SDS011;30223;17.182;-96.766;2023-01-24T03:30:06;11.93;;;3.97;;
44516;SDS011;30223;17.182;-96.766;2023-01-24T03:32:57;8.43;;;4.60;;
44516;SDS011;30223;17.182;-96.766;2023-01-24T03:35:42;9.82;;;4.03;;
44516;SDS011;30223;17.182;-96.766;2023-01-24T03:38:19;12.90;;;5.07;;
44516;SDS011;30223;17.182;-96.766;2023-01-24T03:41:06;7.17;;;3.60;;
44516;SDS011;30223;17.182;-96.766;2023-01-24T03:43:33;6.80;;;4.05;;
44516;SDS011;30223;17.182;-96.766;2023-01-24T03:46:00;8.60;;;3.92;;
44516;SDS011;30223;17.182;-96.766;2023-01-24T03:48:27;8.27;;;4.32;;
44516;SDS011;30223;17.182;-96.766;2023-01-24T03:50:59;7.50;;;4.53;;
44516;SDS011;30223;17.182;-96.766;2023-01-24T03:53:44;8.45;;;4.18;;
44516;SDS011;30223;17.182;-96.766;2023-01-24T03:56:11;6.75;;;3.88;;
44516;SDS011;30223;17.182;-96.766;2023-01-24T03:58:38;6.97;;;4.28;;
44516;SDS011;30223;17.182;-96.766;2023-01-24T04:01:05;5.63;;;3.85;;
44516;SDS011;30223;17.182;-96.766;2023-01-24T04:03:31;6.88;;;4.40;;
44516;SDS011;30223;17.182;-96.766;2023-01-24T04:05:58;7.57;;;4.35;;
44516;SDS011;30223;17.182;-96.766;2023-01-24T04:08:25;6.88;;;3.42;;
44516;SDS011;30223;17.182;-96.766;2023-01-24T04:10:52;6.45;;;3.67;;
44516;SDS011;30223;17.182;-96.766;2023-01-24T04:13:22;8.02;;;4.72;;
44516;SDS011;30223;17.182;-96.766;2023-01-24T04:15:48;11.98;;;5.00;;
44516;SDS011;30223;17.182;-96.766;2023-01-24T04:18:15;10.57;;;3.78;;
44516;SDS011;30223;17.182;-96.766;2023-01-24T04:20:41;5.40;;;3.83;;
44516;SDS011;30223;17.182;-96.766;2023-01-24T04:23:09;7.40;;;3.80;;
44516;SDS011;30223;17.182;-96.766;2023-01-24T04:25:36;8.17;;;3.60;;
44516;SDS011;30223;17.182;-96.766;2023-01-24T04:28:03;14.05;;;4.57;;
44516;SDS011;30223;17.182;-96.766;2023-01-24T04:30:30;8.15;;;4.47;;
44516;SDS011;30223;17.182;-96.766;2023-01-24T04:32:57;8.30;;;3.97;;
44516;SDS011;30223;17.182;-96.766;2023-01-24T04:35:25;7.20;;;4.28;;
44516;SDS011;30223;17.182;-96.766;2023-01-24T04:37:56;9.57;;;5.18;;
44516;SDS011;30223;17.182;-96.766;2023-01-24T04:40:24;6.95;;;3.88;;
44516;SDS011;30223;17.182;-96.766;2023-01-24T04:42:51;7.05;;;4.25;;
44516;SDS011;30223;17.182;-96.766;2023-01-24T04:45:17;8.82;;;4.20;;
44516;SDS011;30223;17.182;-96.766;2023-01-24T04:47:44;8.00;;;4.60;;
44516;SDS011;30223;17.182;-96.766;2023-01-24T04:50:11;8.02;;;3.70;;
44516;SDS011;30223;17.182;-96.766;2023-01-24T04:52:37;7.28;;;3.70;;
44516;SDS011;30223;17.182;-96.766;2023-01-24T04:55:04;8.27;;;3.88;;
44516;SDS011;30223;17.182;-96.766;2023-01-24T04:57:31;5.78;;;3.88;;
44516;SDS011;30223;17.182;-96.766;2023-01-24T04:59:58;7.03;;;3.53;;
44516;SDS011;30223;17.182;-96.766;2023-01-24T05:02:24;4.45;;;3.35;;
44516;SDS011;30223;17.182;-96.766;2023-01-24T05:04:51;6.00;;;4.47;;
44516;SDS011;30223;17.182;-96.766;2023-01-24T05:07:18;4.20;;;3.28;;
44516;SDS011;30223;17.182;-96.766;2023-01-24T05:09:44;7.40;;;3.50;;
44516;SDS011;30223;17.182;-96.766;2023-01-24T05:12:11;4.82;;;4.05;;
44516;SDS011;30223;17.182;-96.766;2023-01-24T05:14:38;4.28;;;3.00;;
44516;SDS011;30223;17.182;-96.766;2023-01-24T05:17:04;9.32;;;3.88;;
44516;SDS011;30223;17.182;-96.766;2023-01-24T05:19:31;5.28;;;3.80;;
44516;SDS011;30223;17.182;-96.766;2023-01-24T05:21:57;8.20;;;3.55;;
44516;SDS011;30223;17.182;-96.766;2023-01-24T05:24:24;6.43;;;3.25;;
44516;SDS011;30223;17.182;-96.766;2023-01-24T05:26:51;7.00;;;3.40;;
44516;SDS011;30223;17.182;-96.766;2023-01-24T05:29:17;5.10;;;3.53;;
44516;SDS011;30223;17.182;-96.766;2023-01-24T05:31:44;10.13;;;3.78;;
44516;SDS011;30223;17.182;-96.766;2023-01-24T05:34:11;8.00;;;3.35;;
44516;SDS011;30223;17.182;-96.766;2023-01-24T05:36:37;8.93;;;3.45;;
44516;SDS011;30223;17.182;-96.766;2023-01-24T05:39:04;5.22;;;3.53;;
44516;SDS011;30223;17.182;-96.766;2023-01-24T05:41:31;5.03;;;3.83;;
44516;SDS011;30223;17.182;-96.766;2023-01-24T05:43:57;5.25;;;2.97;;
44516;SDS011;30223;17.182;-96.766;2023-01-24T05:46:24;6.47;;;3.75;;
44516;SDS011;30223;17.182;-96.766;2023-01-24T05:48:51;5.30;;;3.03;;
44516;SDS011;30223;17.182;-96.766;2023-01-24T05:51:18;3.88;;;2.83;;
44516;SDS011;30223;17.182;-96.766;2023-01-24T05:53:46;5.68;;;3.92;;
44516;SDS011;30223;17.182;-96.766;2023-01-24T05:56:14;6.85;;;4.13;;
44516;SDS011;30223;17.182;-96.766;2023-01-24T06:03:43;5.32;;;3.15;;
44516;SDS011;30223;17.182;-96.766;2023-01-24T06:06:12;5.53;;;3.15;;
44516;SDS011;30223;17.182;-96.766;2023-01-24T06:08:40;5.18;;;3.50;;
44516;SDS011;30223;17.182;-96.766;2023-01-24T06:11:09;4.97;;;3.90;;
44516;SDS011;30223;17.182;-96.766;2023-01-24T06:13:43;5.15;;;2.58;;
44516;SDS011;30223;17.182;-96.766;2023-01-24T06:16:12;4.47;;;2.58;;
44516;SDS011;30223;17.182;-96.766;2023-01-24T06:18:43;5.38;;;3.83;;
44516;SDS011;30223;17.182;-96.766;2023-01-24T06:21:19;7.28;;;3.55;;
44516;SDS011;30223;17.182;-96.766;2023-01-24T06:23:57;5.75;;;3.03;;
44516;SDS011;30223;17.182;-96.766;2023-01-24T06:26:24;5.47;;;3.33;;
44516;SDS011;30223;17.182;-96.766;2023-01-24T06:28:53;5.63;;;3.30;;
44516;SDS011;30223;17.182;-96.766;2023-01-24T06:39:34;7.35;;;2.65;;
44516;SDS011;30223;17.182;-96.766;2023-01-24T06:42:01;4.93;;;2.92;;
44516;SDS011;30223;17.182;-96.766;2023-01-24T06:44:28;9.88;;;2.53;;
44516;SDS011;30223;17.182;-96.766;2023-01-24T06:46:55;5.53;;;3.30;;
44516;SDS011;30223;17.182;-96.766;2023-01-24T06:49:22;5.60;;;3.17;;
44516;SDS011;30223;17.182;-96.766;2023-01-24T06:51:49;9.05;;;3.22;;
44516;SDS011;30223;17.182;-96.766;2023-01-24T06:54:17;7.37;;;3.63;;
44516;SDS011;30223;17.182;-96.766;2023-01-24T06:56:44;4.25;;;3.22;;
44516;SDS011;30223;17.182;-96.766;2023-01-24T06:59:10;6.30;;;2.53;;
44516;SDS011;30223;17.182;-96.766;2023-01-24T07:01:37;4.63;;;2.75;;
44516;SDS011;30223;17.182;-96.766;2023-01-24T07:04:03;6.10;;;3.15;;
44516;SDS011;30223;17.182;-96.766;2023-01-24T07:06:30;9.40;;;3.38;;
44516;SDS011;30223;17.182;-96.766;2023-01-24T07:08:57;4.07;;;2.45;;
44516;SDS011;30223;17.182;-96.766;2023-01-24T07:11:23;4.30;;;3.10;;
44516;SDS011;30223;17.182;-96.766;2023-01-24T07:13:51;4.50;;;2.70;;
44516;SDS011;30223;17.182;-96.766;2023-01-24T07:16:17;7.35;;;3.47;;
44516;SDS011;30223;17.182;-96.766;2023-01-24T07:18:44;4.68;;;3.03;;
44516;SDS011;30223;17.182;-96.766;2023-01-24T07:21:11;5.53;;;2.33;;
44516;SDS011;30223;17.182;-96.766;2023-01-24T07:23:38;5.25;;;3.13;;
44516;SDS011;30223;17.182;-96.766;2023-01-24T07:26:09;5.93;;;2.80;;
44516;SDS011;30223;17.182;-96.766;2023-01-24T07:28:37;5.32;;;3.47;;
44516;SDS011;30223;17.182;-96.766;2023-01-24T07:31:04;4.95;;;2.65;;
44516;SDS011;30223;17.182;-96.766;2023-01-24T07:33:31;7.50;;;3.05;;
44516;SDS011;30223;17.182;-96.766;2023-01-24T07:35:58;4.07;;;2.85;;
44516;SDS011;30223;17.182;-96.766;2023-01-24T07:38:24;2.78;;;2.50;;
44516;SDS011;30223;17.182;-96.766;2023-01-24T07:40:51;3.92;;;2.95;;
44516;SDS011;30223;17.182;-96.766;2023-01-24T07:43:17;5.68;;;3.35;;
44516;SDS011;30223;17.182;-96.766;2023-01-24T07:45:45;3.28;;;2.40;;
44516;SDS011;30223;17.182;-96.766;2023-01-24T07:48:12;3.13;;;2.13;;
44516;SDS011;30223;17.182;-96.766;2023-01-24T07:50:39;4.47;;;2.63;;
44516;SDS011;30223;17.182;-96.766;2023-01-24T07:53:05;4.40;;;2.38;;
44516;SDS011;30223;17.182;-96.766;2023-01-24T07:55:32;4.60;;;3.08;;
44516;SDS011;30223;17.182;-96.766;2023-01-24T07:57:59;4.90;;;2.55;;
44516;SDS011;30223;17.182;-96.766;2023-01-24T08:02:54;5.00;;;2.75;;
44516;SDS011;30223;17.182;-96.766;2023-01-24T08:05:21;5.35;;;2.13;;
44516;SDS011;30223;17.182;-96.766;2023-01-24T08:07:48;4.30;;;3.03;;
44516;SDS011;30223;17.182;-96.766;2023-01-24T08:10:15;4.13;;;3.25;;
44516;SDS011;30223;17.182;-96.766;2023-01-24T08:12:41;4.72;;;3.25;;
44516;SDS011;30223;17.182;-96.766;2023-01-24T08:15:08;5.88;;;3.20;;
44516;SDS011;30223;17.182;-96.766;2023-01-24T08:17:36;4.57;;;2.50;;
44516;SDS011;30223;17.182;-96.766;2023-01-24T08:20:03;3.15;;;2.15;;
44516;SDS011;30223;17.182;-96.766;2023-01-24T08:22:30;3.42;;;3.13;;
44516;SDS011;30223;17.182;-96.766;2023-01-24T08:24:57;3.25;;;2.30;;
44516;SDS011;30223;17.182;-96.766;2023-01-24T08:27:23;4.75;;;2.47;;
44516;SDS011;30223;17.182;-96.766;2023-01-24T08:29:50;6.03;;;2.72;;
44516;SDS011;30223;17.182;-96.766;2023-01-24T08:32:17;5.43;;;3.15;;
44516;SDS011;30223;17.182;-96.766;2023-01-24T08:34:43;2.95;;;2.33;;
44516;SDS011;30223;17.182;-96.766;2023-01-24T08:37:10;4.40;;;3.05;;
44516;SDS011;30223;17.182;-96.766;2023-01-24T08:39:37;4.53;;;3.20;;
44516;SDS011;30223;17.182;-96.766;2023-01-24T08:42:03;5.85;;;2.95;;
44516;SDS011;30223;17.182;-96.766;2023-01-24T08:44:30;6.05;;;3.47;;
44516;SDS011;30223;17.182;-96.766;2023-01-24T08:46:56;4.10;;;2.80;;
44516;SDS011;30223;17.182;-96.766;2023-01-24T08:49:23;4.55;;;3.05;;
44516;SDS011;30223;17.182;-96.766;2023-01-24T08:51:50;4.22;;;2.50;;
44516;SDS011;30223;17.182;-96.766;2023-01-24T08:54:24;5.32;;;3.00;;
44516;SDS011;30223;17.182;-96.766;2023-01-24T08:56:52;4.80;;;3.17;;
44516;SDS011;30223;17.182;-96.766;2023-01-24T08:59:18;5.07;;;3.00;;
44516;SDS011;30223;17.182;-96.766;2023-01-24T09:01:45;4.78;;;3.05;;
44516;SDS011;30223;17.182;-96.766;2023-01-24T09:04:12;4.30;;;2.58;;
44516;SDS011;30223;17.182;-96.766;2023-01-24T09:06:39;4.63;;;3.45;;
44516;SDS011;30223;17.182;-96.766;2023-01-24T09:09:06;3.85;;;2.38;;
44516;SDS011;30223;17.182;-96.766;2023-01-24T09:11:32;4.65;;;2.85;;
44516;SDS011;30223;17.182;-96.766;2023-01-24T09:13:59;7.15;;;3.15;;
44516;SDS011;30223;17.182;-96.766;2023-01-24T09:16:26;4.28;;;3.35;;
44516;SDS011;30223;17.182;-96.766;2023-01-24T09:18:53;3.17;;;2.72;;
44516;SDS011;30223;17.182;-96.766;2023-01-24T09:21:20;4.53;;;2.90;;
44516;SDS011;30223;17.182;-96.766;2023-01-24T09:23:47;5.35;;;3.35;;
44516;SDS011;30223;17.182;-96.766;2023-01-24T09:26:14;2.65;;;2.03;;
44516;SDS011;30223;17.182;-96.766;2023-01-24T09:28:40;3.17;;;2.22;;
44516;SDS011;30223;17.182;-96.766;2023-01-24T09:31:08;3.25;;;2.83;;
44516;SDS011;30223;17.182;-96.766;2023-01-24T09:33:35;3.17;;;2.05;;
44516;SDS011;30223;17.182;-96.766;2023-01-24T09:36:02;3.28;;;2.30;;
44516;SDS011;30223;17.182;-96.766;2023-01-24T09:38:30;4.40;;;3.15;;
44516;SDS011;30223;17.182;-96.766;2023-01-24T09:43:50;3.35;;;2.15;;
44516;SDS011;30223;17.182;-96.766;2023-01-24T09:46:40;3.40;;;2.60;;
44516;SDS011;30223;17.182;-96.766;2023-01-24T09:51:50;4.28;;;2.63;;
44516;SDS011;30223;17.182;-96.766;2023-01-24T09:57:10;4.40;;;2.45;;
44516;SDS011;30223;17.182;-96.766;2023-01-24T09:59:58;5.10;;;3.13;;
44516;SDS011;30223;17.182;-96.766;2023-01-24T10:02:38;4.18;;;2.65;;
44516;SDS011;30223;17.182;-96.766;2023-01-24T10:05:12;4.13;;;2.40;;
44516;SDS011;30223;17.182;-96.766;2023-01-24T10:16:10;5.53;;;2.88;;
44516;SDS011;30223;17.182;-96.766;2023-01-24T10:21:34;4.00;;;2.78;;
44516;SDS011;30223;17.182;-96.766;2023-01-24T10:24:32;3.78;;;2.58;;
44516;SDS011;30223;17.182;-96.766;2023-01-24T10:27:09;4.93;;;3.05;;
44516;SDS011;30223;17.182;-96.766;2023-01-24T10:29:51;2.80;;;2.03;;
44516;SDS011;30223;17.182;-96.766;2023-01-24T10:32:37;4.65;;;2.95;;
44516;SDS011;30223;17.182;-96.766;2023-01-24T10:35:17;4.07;;;2.72;;
44516;SDS011;30223;17.182;-96.766;2023-01-24T10:37:50;4.28;;;2.70;;
44516;SDS011;30223;17.182;-96.766;2023-01-24T10:40:22;5.43;;;3.33;;
44516;SDS011;30223;17.182;-96.766;2023-01-24T10:42:53;4.50;;;2.80;;
44516;SDS011;30223;17.182;-96.766;2023-01-24T10:48:27;4.60;;;2.70;;
44516;SDS011;30223;17.182;-96.766;2023-01-24T10:53:39;3.53;;;2.13;;
44516;SDS011;30223;17.182;-96.766;2023-01-24T10:56:06;4.38;;;2.72;;
44516;SDS011;30223;17.182;-96.766;2023-01-24T10:58:39;4.13;;;2.30;;
44516;SDS011;30223;17.182;-96.766;2023-01-24T11:03:44;3.13;;;2.17;;
44516;SDS011;30223;17.182;-96.766;2023-01-24T11:06:23;5.00;;;3.65;;
44516;SDS011;30223;17.182;-96.766;2023-01-24T11:08:55;3.95;;;2.42;;
44516;SDS011;30223;17.182;-96.766;2023-01-24T11:11:34;3.67;;;2.45;;
44516;SDS011;30223;17.182;-96.766;2023-01-24T11:14:10;5.35;;;2.72;;
44516;SDS011;30223;17.182;-96.766;2023-01-24T11:16:46;6.15;;;2.80;;
44516;SDS011;30223;17.182;-96.766;2023-01-24T11:19:31;3.53;;;2.53;;
44516;SDS011;30223;17.182;-96.766;2023-01-24T11:22:01;5.05;;;3.17;;
44516;SDS011;30223;17.182;-96.766;2023-01-24T11:24:48;2.87;;;2.20;;
44516;SDS011;30223;17.182;-96.766;2023-01-24T11:27:19;3.83;;;2.58;;
44516;SDS011;30223;17.182;-96.766;2023-01-24T11:30:03;4.20;;;3.05;;
44516;SDS011;30223;17.182;-96.766;2023-01-24T11:35:55;2.88;;;1.98;;
44516;SDS011;30223;17.182;-96.766;2023-01-24T11:38:38;3.38;;;2.67;;
44516;SDS011;30223;17.182;-96.766;2023-01-24T11:44:14;4.28;;;2.40;;
44516;SDS011;30223;17.182;-96.766;2023-01-24T11:47:00;3.60;;;2.50;;
44516;SDS011;30223;17.182;-96.766;2023-01-24T11:55:29;3.03;;;2.67;;
44516;SDS011;30223;17.182;-96.766;2023-01-24T12:09:23;4.60;;;2.70;;
44516;SDS011;30223;17.182;-96.766;2023-01-24T12:23:11;4.60;;;3.03;;
44516;SDS011;30223;17.182;-96.766;2023-01-24T12:25:47;3.40;;;2.47;;
44516;SDS011;30223;17.182;-96.766;2023-01-24T12:28:19;3.90;;;3.10;;
44516;SDS011;30223;17.182;-96.766;2023-01-24T12:31:24;3.92;;;2.65;;
44516;SDS011;30223;17.182;-96.766;2023-01-24T12:34:27;5.68;;;3.70;;
44516;SDS011;30223;17.182;-96.766;2023-01-24T12:39:37;4.65;;;3.03;;
44516;SDS011;30223;17.182;-96.766;2023-01-24T12:42:19;4.90;;;3.33;;
44516;SDS011;30223;17.182;-96.766;2023-01-24T12:45:05;4.22;;;2.92;;
44516;SDS011;30223;17.182;-96.766;2023-01-24T12:47:47;3.53;;;2.42;;
44516;SDS011;30223;17.182;-96.766;2023-01-24T12:55:19;4.35;;;2.63;;
44516;SDS011;30223;17.182;-96.766;2023-01-24T13:00:26;4.53;;;3.05;;
44516;SDS011;30223;17.182;-96.766;2023-01-24T13:06:12;3.75;;;2.92;;
44516;SDS011;30223;17.182;-96.766;2023-01-24T13:09:15;4.78;;;2.47;;
44516;SDS011;30223;17.182;-96.766;2023-01-24T13:11:59;4.85;;;3.42;;
44516;SDS011;30223;17.182;-96.766;2023-01-24T13:17:04;4.43;;;3.08;;
44516;SDS011;30223;17.182;-96.766;2023-01-24T13:22:46;4.00;;;3.42;;
44516;SDS011;30223;17.182;-96.766;2023-01-24T13:28:19;3.33;;;2.63;;
44516;SDS011;30223;17.182;-96.766;2023-01-24T13:33:46;5.90;;;2.83;;
44516;SDS011;30223;17.182;-96.766;2023-01-24T13:36:20;4.50;;;2.95;;
44516;SDS011;30223;17.182;-96.766;2023-01-24T13:38:50;3.53;;;2.58;;
44516;SDS011;30223;17.182;-96.766;2023-01-24T13:41:32;5.10;;;3.20;;
44516;SDS011;30223;17.182;-96.766;2023-01-24T13:44:02;4.05;;;3.08;;
44516;SDS011;30223;17.182;-96.766;2023-01-24T13:49:18;3.35;;;2.50;;
44516;SDS011;30223;17.182;-96.766;2023-01-24T13:51:58;4.53;;;2.88;;
44516;SDS011;30223;17.182;-96.766;2023-01-24T13:57:09;5.28;;;3.03;;
44516;SDS011;30223;17.182;-96.766;2023-01-24T13:59:37;3.95;;;2.90;;
44516;SDS011;30223;17.182;-96.766;2023-01-24T14:07:59;3.33;;;2.90;;
44516;SDS011;30223;17.182;-96.766;2023-01-24T14:10:45;6.28;;;3.38;;
44516;SDS011;30223;17.182;-96.766;2023-01-24T14:18:59;4.43;;;3.08;;
44516;SDS011;30223;17.182;-96.766;2023-01-24T14:21:32;5.63;;;3.20;;
44516;SDS011;30223;17.182;-96.766;2023-01-24T14:24:32;5.43;;;3.67;;
44516;SDS011;30223;17.182;-96.766;2023-01-24T14:27:13;3.50;;;3.17;;
44516;SDS011;30223;17.182;-96.766;2023-01-24T14:35:20;7.28;;;3.30;;
44516;SDS011;30223;17.182;-96.766;2023-01-24T14:37:47;7.40;;;4.18;;
44516;SDS011;30223;17.182;-96.766;2023-01-24T14:40:19;4.40;;;3.50;;
44516;SDS011;30223;17.182;-96.766;2023-01-24T14:42:50;4.35;;;2.88;;
44516;SDS011;30223;17.182;-96.766;2023-01-24T14:45:26;6.72;;;3.25;;
44516;SDS011;30223;17.182;-96.766;2023-01-24T14:47:55;5.00;;;2.83;;
44516;SDS011;30223;17.182;-96.766;2023-01-24T14:50:27;5.00;;;3.47;;
44516;SDS011;30223;17.182;-96.766;2023-01-24T14:53:44;7.00;;;3.60;;
44516;SDS011;30223;17.182;-96.766;2023-01-24T14:55:54;4.05;;;2.47;;
44516;SDS011;30223;17.182;-96.766;2023-01-24T14:58:26;6.10;;;4.03;;
44516;SDS011;30223;17.182;-96.766;2023-01-24T15:00:58;5.45;;;3.08;;
44516;SDS011;30223;17.182;-96.766;2023-01-24T15:03:35;6.28;;;3.30;;
44516;SDS011;30223;17.182;-96.766;2023-01-24T15:06:03;6.55;;;2.92;;
44516;SDS011;30223;17.182;-96.766;2023-01-24T15:08:31;5.75;;;3.35;;
44516;SDS011;30223;17.182;-96.766;2023-01-24T15:11:06;6.45;;;4.07;;
44516;SDS011;30223;17.182;-96.766;2023-01-24T15:13:47;5.47;;;2.80;;
44516;SDS011;30223;17.182;-96.766;2023-01-24T15:16:29;3.78;;;2.65;;
44516;SDS011;30223;17.182;-96.766;2023-01-24T15:19:06;6.22;;;3.15;;
44516;SDS011;30223;17.182;-96.766;2023-01-24T15:21:44;6.95;;;3.47;;
44516;SDS011;30223;17.182;-96.766;2023-01-24T15:24:33;4.70;;;3.15;;
44516;SDS011;30223;17.182;-96.766;2023-01-24T15:26:59;6.43;;;3.35;;
44516;SDS011;30223;17.182;-96.766;2023-01-24T15:29:48;4.22;;;3.03;;
44516;SDS011;30223;17.182;-96.766;2023-01-24T15:32:22;4.63;;;2.97;;
44516;SDS011;30223;17.182;-96.766;2023-01-24T15:35:16;6.15;;;4.05;;
44516;SDS011;30223;17.182;-96.766;2023-01-24T15:40:43;3.58;;;2.65;;
44516;SDS011;30223;17.182;-96.766;2023-01-24T15:43:58;6.45;;;3.40;;
44516;SDS011;30223;17.182;-96.766;2023-01-24T15:46:17;5.82;;;3.38;;
44516;SDS011;30223;17.182;-96.766;2023-01-24T15:49:23;4.75;;;3.85;;
44516;SDS011;30223;17.182;-96.766;2023-01-24T15:54:36;5.72;;;3.95;;
44516;SDS011;30223;17.182;-96.766;2023-01-24T15:57:17;5.10;;;3.05;;
44516;SDS011;30223;17.182;-96.766;2023-01-24T15:59:48;4.88;;;3.15;;
44516;SDS011;30223;17.182;-96.766;2023-01-24T16:02:17;5.03;;;3.78;;
44516;SDS011;30223;17.182;-96.766;2023-01-24T16:04:43;4.93;;;3.45;;
44516;SDS011;30223;17.182;-96.766;2023-01-24T16:07:11;5.65;;;3.15;;
44516;SDS011;30223;17.182;-96.766;2023-01-24T16:09:37;5.82;;;3.40;;
44516;SDS011;30223;17.182;-96.766;2023-01-24T16:12:04;4.18;;;2.63;;
44516;SDS011;30223;17.182;-96.766;2023-01-24T16:14:31;4.93;;;3.05;;
44516;SDS011;30223;17.182;-96.766;2023-01-24T16:16:58;6.70;;;3.47;;
44516;SDS011;30223;17.182;-96.766;2023-01-24T16:19:28;4.80;;;4.07;;
44516;SDS011;30223;17.182;-96.766;2023-01-24T16:21:55;6.50;;;3.08;;
44516;SDS011;30223;17.182;-96.766;2023-01-24T16:24:21;5.18;;;3.63;;
44516;SDS011;30223;17.182;-96.766;2023-01-24T16:26:49;7.18;;;3.65;;
44516;SDS011;30223;17.182;-96.766;2023-01-24T16:29:20;4.47;;;2.90;;
44516;SDS011;30223;17.182;-96.766;2023-01-24T16:31:52;4.60;;;2.92;;
44516;SDS011;30223;17.182;-96.766;2023-01-24T16:34:19;4.47;;;3.58;;
44516;SDS011;30223;17.182;-96.766;2023-01-24T16:36:46;6.25;;;3.40;;
44516;SDS011;30223;17.182;-96.766;2023-01-24T16:39:21;7.50;;;3.60;;
44516;SDS011;30223;17.182;-96.766;2023-01-24T16:41:48;4.22;;;2.97;;
44516;SDS011;30223;17.182;-96.766;2023-01-24T16:44:16;4.55;;;3.10;;
44516;SDS011;30223;17.182;-96.766;2023-01-24T16:46:47;6.10;;;3.33;;
44516;SDS011;30223;17.182;-96.766;2023-01-24T16:49:15;6.22;;;3.42;;
44516;SDS011;30223;17.182;-96.766;2023-01-24T16:51:42;4.72;;;3.05;;
44516;SDS011;30223;17.182;-96.766;2023-01-24T16:54:10;4.82;;;3.00;;
44516;SDS011;30223;17.182;-96.766;2023-01-24T16:56:36;4.20;;;2.58;;
44516;SDS011;30223;17.182;-96.766;2023-01-24T16:59:03;5.20;;;3.17;;
44516;SDS011;30223;17.182;-96.766;2023-01-24T17:01:30;6.70;;;3.25;;
44516;SDS011;30223;17.182;-96.766;2023-01-24T17:03:56;5.10;;;2.80;;
44516;SDS011;30223;17.182;-96.766;2023-01-24T17:06:23;5.60;;;3.38;;